Saint Stephen, MN (56375)

8:01 AM CST on January 18, 2017 (GMT -0600)
MMN064 | | Change Station

Elev 1062 ft 45.77 °N, 94.23 °W | Updated 43 minutes ago

Partly Cloudy
Partly Cloudy
23.0 °F
Feels Like 16 °F
N
6.0
Wind Variable Wind from South
Gusts 11.0 mph

Today
High -- | Low -- °F
--% Chance of Precip.
Yesterday
High -- | Low -- °F
Precip. -- in
Pressure 29.94 in
Visibility 5.0 miles
Clouds Clear
Windchill 16 °F
Dew Point 21 °F
Humidity 89%
Rainfall 0.00 in
Snow Depth Not available.
7:51 AM 5:03 PM
Waning Gibbous, 63% visible
METAR KSTC 181353Z 16004KT 5SM BR CLR M06/M06 A2986 RMK AO2 SLP137 I1000 T10561061
Pressure 29.94 in
Visibility 5.0 miles
Clouds Clear
Windchill 16 °F
Dew Point 21 °F
Humidity 89%
Rainfall 0.00 in
Snow Depth Not available.
7:51 AM 5:03 PM
Waning Gibbous, 63% visible
METAR KSTC 181353Z 16004KT 5SM BR CLR M06/M06 A2986 RMK AO2 SLP137 I1000 T10561061

Get Your Daily Forecast Email!

Thanks for signing up!

Be on the lookout for a verification email in your inbox.

You'll start receiving the daily forecast at 8 AM.

×

10-Day Weather Forecast

Almanac

Astronomy

Jan. 18, 2017 Rise Set
Actual Time
Civil Twilight
Nautical Twilight
Astronomical Twilight
Moon
Length of Visible Light
Length of Day
Tomorrow will be .
, % of the Moon is Illuminated

Today's Extremes

State Highs State Lows

Community

WunderPhotos

Upload Photos

1,962,540 photos uploaded!

WunderBlog® & News

Nearby

Air Quality

  Air Quality AQ Index Pollutant
Not available.

Snow Depth

Station Depth Elevation

Earthquake Activity

City Distance Mag. Time & Date
Minimum magnitude displayed is 2.5.

Coastal Water Temperatures

Place Temperature

Stations

Nearby Weather Stations

Station Location Temp. Windchill Dew Point Humidity Wind Precip. Elev Updated Type
                   

Watches & Warnings

There are currently no watches in effect.